Aidablu — IBWX — position and weather

sailwx.info

Track history (hours):
 
Tides and Currents Weather Stations Pressure Air Temp Water Temp Dewpoint Dewpoint Depression Visibility Wind Speed Wind Dir Waves Ship Positions

Aidablu

Last reported at 2014-Nov-18 07:32 UTC. Time now 2014-Nov-26 01:37 UTC.
Position N 32°14' W 016°34'.

Length 252 m; draft 7.3 m.

Type: Ship. MMSI: 247282500.

Date/timePositionNaut miles runAvg speedWind from/ knotsBaromVisibWave heightAir tempDewpointWater temp
2014-Nov-18 07:32N 32°14' W 016°34'1515.1
2014-Nov-18 06:34N 32°26' W 016°44'1414.4
2014-Nov-18 05:33N 32°38' W 016°54'1 0.9
2014-Nov-18 04:32N 32°39' W 016°55'0 0.0
2014-Nov-18 03:31N 32°39' W 016°55'0 0.0
2014-Nov-18 02:31N 32°39' W 016°55'0 0.0
2014-Nov-18 01:31N 32°39' W 016°55'0 0.0
2014-Nov-18 00:33N 32°39' W 016°55'0 0.0
2014-Nov-17 23:33N 32°39' W 016°55'0 0.0
2014-Nov-17 22:26N 32°39' W 016°55'0 0.0
2014-Nov-17 21:26N 32°39' W 016°55'0 0.0
2014-Nov-17 20:31N 32°39' W 016°55'0 0.0
2014-Nov-17 19:31N 32°39' W 016°55'0 0.0
2014-Nov-17 18:31N 32°39' W 016°55'0 0.0
2014-Nov-17 17:33N 32°39' W 016°55'0 0.0
2014-Nov-17 16:33N 32°39' W 016°55'0 0.0
2014-Nov-17 15:06N 32°39' W 016°55'0 0.0
2014-Nov-17 14:31N 32°39' W 016°55'0 0.0
2014-Nov-17 13:32N 32°39' W 016°55'0 0.0
2014-Nov-17 12:32N 32°39' W 016°55'0 0.0
2014-Nov-17 11:31N 32°39' W 016°55'0 0.0
2014-Nov-17 10:31N 32°39' W 016°55'0 0.0
2014-Nov-17 09:33N 32°39' W 016°55'0 0.0
2014-Nov-17 08:33N 32°39' W 016°55'0 0.0
2014-Nov-17 07:32N 32°39' W 016°55'4 4.3
2014-Nov-17 06:34N 32°35' W 016°53'10 9.9
2014-Nov-17 05:34N 32°25' W 016°49'8 7.7
2014-Nov-17 04:34N 32°18' W 016°46'8 7.5
2014-Nov-17 03:33N 32°11' W 016°44'8 7.5
2014-Nov-17 02:31N 32°03' W 016°41'  
2014-Nov-11 07:31N 32°15' W 016°35'1414.8
2014-Nov-11 06:33N 32°27' W 016°45'1414.1
2014-Nov-11 05:33N 32°38' W 016°54'1 0.1
2014-Nov-10 18:26N 32°39' W 016°55'0 0.0
2014-Nov-10 17:31N 32°39' W 016°55'0 0.0
2014-Nov-10 16:33N 32°39' W 016°55'0 0.0
2014-Nov-10 15:33N 32°39' W 016°55'0 0.0
2014-Nov-10 14:34N 32°39' W 016°55'0 0.0
2014-Nov-10 13:34N 32°39' W 016°55'0 0.0
2014-Nov-10 12:33N 32°39' W 016°55'0 0.0
2014-Nov-10 11:33N 32°39' W 016°55'0 0.0
2014-Nov-10 10:31N 32°39' W 016°55'0 0.0
2014-Nov-10 09:32N 32°39' W 016°55'0 0.0
2014-Nov-10 08:31N 32°39' W 016°55'0 0.0
2014-Nov-10 07:33N 32°39' W 016°55'5 4.5
2014-Nov-10 06:33N 32°34' W 016°53'1212.4
2014-Nov-10 05:33N 32°23' W 016°48'1212.2
2014-Nov-10 04:33N 32°11' W 016°44'1412.8
2014-Nov-10 03:30N 31°58' W 016°39'  
Track history (hours):
 
Tides and Currents Weather Stations Pressure Air Temp Water Temp Dewpoint Dewpoint Depression Visibility Wind Speed Wind Dir Waves Ship Positions

Aidablu

Last reported at 2014-Nov-18 07:32 UTC. Time now 2014-Nov-26 01:37 UTC.
Position N 32°14' W 016°34'.

Length 252 m; draft 7.3 m.

Type: Ship. MMSI: 247282500.

Date/timePositionNaut miles runAvg speedWind from/ knotsBaromVisibWave heightAir tempDewpointWater temp
2014-Nov-18 07:32N 32°14' W 016°34'1515.1
2014-Nov-18 06:34N 32°26' W 016°44'1414.4
2014-Nov-18 05:33N 32°38' W 016°54'1 0.9
2014-Nov-18 04:32N 32°39' W 016°55'0 0.0
2014-Nov-18 03:31N 32°39' W 016°55'0 0.0
2014-Nov-18 02:31N 32°39' W 016°55'0 0.0
2014-Nov-18 01:31N 32°39' W 016°55'0 0.0
2014-Nov-18 00:33N 32°39' W 016°55'0 0.0
2014-Nov-17 23:33N 32°39' W 016°55'0 0.0
2014-Nov-17 22:26N 32°39' W 016°55'0 0.0
2014-Nov-17 21:26N 32°39' W 016°55'0 0.0
2014-Nov-17 20:31N 32°39' W 016°55'0 0.0
2014-Nov-17 19:31N 32°39' W 016°55'0 0.0
2014-Nov-17 18:31N 32°39' W 016°55'0 0.0
2014-Nov-17 17:33N 32°39' W 016°55'0 0.0
2014-Nov-17 16:33N 32°39' W 016°55'0 0.0
2014-Nov-17 15:06N 32°39' W 016°55'0 0.0
2014-Nov-17 14:31N 32°39' W 016°55'0 0.0
2014-Nov-17 13:32N 32°39' W 016°55'0 0.0
2014-Nov-17 12:32N 32°39' W 016°55'0 0.0
2014-Nov-17 11:31N 32°39' W 016°55'0 0.0
2014-Nov-17 10:31N 32°39' W 016°55'0 0.0
2014-Nov-17 09:33N 32°39' W 016°55'0 0.0
2014-Nov-17 08:33N 32°39' W 016°55'0 0.0
2014-Nov-17 07:32N 32°39' W 016°55'4 4.3
2014-Nov-17 06:34N 32°35' W 016°53'10 9.9
2014-Nov-17 05:34N 32°25' W 016°49'8 7.7
2014-Nov-17 04:34N 32°18' W 016°46'8 7.5
2014-Nov-17 03:33N 32°11' W 016°44'8 7.5
2014-Nov-17 02:31N 32°03' W 016°41'  
2014-Nov-11 07:31N 32°15' W 016°35'1414.8
2014-Nov-11 06:33N 32°27' W 016°45'1414.1
2014-Nov-11 05:33N 32°38' W 016°54'1 0.1
2014-Nov-10 18:26N 32°39' W 016°55'0 0.0
2014-Nov-10 17:31N 32°39' W 016°55'0 0.0
2014-Nov-10 16:33N 32°39' W 016°55'0 0.0
2014-Nov-10 15:33N 32°39' W 016°55'0 0.0
2014-Nov-10 14:34N 32°39' W 016°55'0 0.0
2014-Nov-10 13:34N 32°39' W 016°55'0 0.0
2014-Nov-10 12:33N 32°39' W 016°55'0 0.0
2014-Nov-10 11:33N 32°39' W 016°55'0 0.0
2014-Nov-10 10:31N 32°39' W 016°55'0 0.0
2014-Nov-10 09:32N 32°39' W 016°55'0 0.0
2014-Nov-10 08:31N 32°39' W 016°55'0 0.0
2014-Nov-10 07:33N 32°39' W 016°55'5 4.5
2014-Nov-10 06:33N 32°34' W 016°53'1212.4
2014-Nov-10 05:33N 32°23' W 016°48'1212.2
2014-Nov-10 04:33N 32°11' W 016°44'1412.8
2014-Nov-10 03:30N 31°58' W 016°39'  

Dump ship's entire track history